Time;durP1;ratioP1;P1;durP2;ratioP2;P2;SDS_P1;SDS_P2;PMS_P1;PMS_P2;Temp;Humidity;BMP_temperature;BMP_pressure;BME280_temperature;BME280_humidity;BME280_pressure;Samples;Min_cycle;Max_cycle;Signal;HPM_P1;HPM_P2
2023/09/19 00:02:08;;;;;;;1.70;1.60;;;16.20;99.90;;;;;;6124401;23;20671;-89
2023/09/19 00:04:39;;;;;;;2.50;1.52;;;16.20;99.90;;;;;;6124589;23;20243;-90
2023/09/19 00:07:06;;;;;;;2.70;1.70;;;16.20;99.90;;;;;;6123537;23;20211;-89
2023/09/19 00:09:37;;;;;;;2.13;1.38;;;16.30;99.90;;;;;;6124855;23;20180;-90
2023/09/19 00:12:04;;;;;;;2.67;1.63;;;16.30;99.90;;;;;;6131723;23;20171;-89
2023/09/19 00:14:34;;;;;;;1.65;1.55;;;16.40;99.70;;;;;;6128084;23;20173;-90
2023/09/19 00:17:07;;;;;;;1.73;1.45;;;16.40;99.50;;;;;;6124659;23;20348;-90
2023/09/19 00:19:37;;;;;;;2.25;1.50;;;16.40;99.50;;;;;;6124494;23;20164;-90
2023/09/19 00:22:04;;;;;;;2.13;1.60;;;16.50;99.30;;;;;;6122657;23;20580;-89
2023/09/19 00:24:31;;;;;;;1.70;1.60;;;16.50;99.40;;;;;;6121678;23;20886;-90
2023/09/19 00:26:59;;;;;;;1.58;1.40;;;16.50;99.30;;;;;;6123459;23;20195;-89
2023/09/19 00:29:28;;;;;;;1.73;1.40;;;16.50;99.20;;;;;;6123209;23;20623;-90
2023/09/19 00:31:56;;;;;;;2.30;1.40;;;16.50;99.10;;;;;;6124306;23;20175;-90
2023/09/19 00:34:23;;;;;;;3.38;2.00;;;16.50;98.70;;;;;;6120156;23;20195;-89
2023/09/19 00:36:54;;;;;;;2.25;1.40;;;16.60;98.40;;;;;;6123640;23;20172;-90
2023/09/19 00:39:21;;;;;;;1.63;1.52;;;16.60;98.60;;;;;;6122650;23;20170;-90
2023/09/19 00:41:48;;;;;;;1.73;1.45;;;16.60;98.60;;;;;;6123862;23;20184;-89
2023/09/19 00:44:17;;;;;;;4.75;1.60;;;16.60;98.50;;;;;;6123146;23;20184;-90
2023/09/19 00:46:47;;;;;;;3.83;1.50;;;16.60;98.70;;;;;;6125218;23;20196;-89
2023/09/19 00:49:15;;;;;;;2.90;1.60;;;16.60;98.60;;;;;;6124441;23;20549;-89
2023/09/19 00:51:45;;;;;;;3.20;1.40;;;16.50;98.90;;;;;;6125211;23;20199;-90
2023/09/19 00:54:18;;;;;;;3.42;1.58;;;16.50;99.00;;;;;;6124514;23;20174;-89
2023/09/19 00:56:45;;;;;;;3.50;1.50;;;16.50;98.90;;;;;;6124735;23;20550;-90
2023/09/19 00:59:12;;;;;;;3.45;1.70;;;16.40;99.30;;;;;;6123470;23;20247;-89
2023/09/19 01:01:40;;;;;;;3.08;1.33;;;16.40;99.10;;;;;;6124002;23;20178;-90
2023/09/19 01:04:07;;;;;;;2.50;1.75;;;16.40;99.00;;;;;;6122488;23;20179;-89
2023/09/19 01:06:36;;;;;;;1.65;1.40;;;16.40;99.00;;;;;;6123599;23;20254;-90
2023/09/19 01:09:05;;;;;;;4.82;1.67;;;16.30;99.00;;;;;;6124072;23;20631;-90
2023/09/19 01:11:41;;;;;;;1.63;1.40;;;16.40;99.00;;;;;;6125439;23;20511;-90
2023/09/19 01:14:20;;;;;;;2.88;1.48;;;16.40;99.20;;;;;;6123694;23;20622;-89
2023/09/19 01:16:58;;;;;;;2.17;1.55;;;16.40;99.20;;;;;;6125340;23;20633;-90
2023/09/19 01:19:57;;;;;;;1.92;1.38;;;16.40;99.20;;;;;;6123387;23;20630;-91
2023/09/19 01:22:34;;;;;;;2.38;1.65;;;16.50;98.70;;;;;;6124825;23;20170;-90
2023/09/19 01:25:19;;;;;;;2.35;1.50;;;16.50;98.50;;;;;;6124405;23;20588;-89
2023/09/19 01:28:16;;;;;;;2.00;1.35;;;16.40;98.60;;;;;;6124836;23;20153;-89
2023/09/19 01:30:47;;;;;;;3.80;1.70;;;16.50;98.30;;;;;;6125018;23;20219;-90
2023/09/19 01:33:14;;;;;;;2.33;1.45;;;16.50;98.20;;;;;;6124589;23;20188;-90
2023/09/19 01:35:43;;;;;;;2.97;1.40;;;16.50;98.40;;;;;;6124998;23;20176;-90
2023/09/19 01:38:11;;;;;;;1.52;1.42;;;16.50;98.60;;;;;;6125196;23;20231;-90
2023/09/19 01:40:44;;;;;;;2.45;1.48;;;16.50;98.70;;;;;;6125095;23;20491;-90
2023/09/19 01:43:19;;;;;;;2.58;1.60;;;16.50;98.20;;;;;;6123590;23;20175;-89
2023/09/19 01:45:53;;;;;;;1.70;1.42;;;16.50;98.20;;;;;;6123806;23;20371;-90
2023/09/19 01:48:32;;;;;;;4.68;1.50;;;16.60;97.90;;;;;;6124914;23;20168;-89
2023/09/19 01:51:02;;;;;;;3.42;1.60;;;16.60;97.60;;;;;;6119676;23;20250;-89
2023/09/19 01:53:34;;;;;;;1.65;1.42;;;16.60;97.50;;;;;;6125066;23;20483;-90
2023/09/19 01:56:03;;;;;;;2.45;1.70;;;16.50;97.80;;;;;;6125036;23;20470;-90
2023/09/19 01:58:36;;;;;;;1.98;1.60;;;16.50;98.10;;;;;;6124615;23;20234;-90
2023/09/19 02:01:06;;;;;;;2.67;1.65;;;16.50;98.10;;;;;;6124749;23;20168;-89
2023/09/19 02:03:38;;;;;;;1.73;1.48;;;16.50;98.00;;;;;;6124687;23;20596;-89
2023/09/19 02:06:11;;;;;;;1.60;1.27;;;16.50;98.30;;;;;;6125004;23;20180;-89
2023/09/19 02:08:39;;;;;;;2.35;1.67;;;16.50;98.20;;;;;;6124065;23;20215;-90
2023/09/19 02:11:06;;;;;;;2.13;1.60;;;16.50;98.40;;;;;;6124137;23;20180;-89
2023/09/19 02:13:33;;;;;;;1.80;1.50;;;16.50;98.20;;;;;;6123767;23;20230;-89
2023/09/19 02:16:01;;;;;;;4.00;1.50;;;16.50;98.20;;;;;;6124611;23;20207;-90
2023/09/19 02:18:30;;;;;;;2.40;1.63;;;16.60;98.10;;;;;;6123874;23;20176;-90
2023/09/19 02:20:57;;;;;;;3.15;1.40;;;16.50;98.00;;;;;;6122039;23;20180;-90
2023/09/19 02:23:24;;;;;;;2.83;1.48;;;16.50;97.80;;;;;;6124723;23;20509;-90
2023/09/19 02:25:54;;;;;;;1.35;1.25;;;16.60;98.00;;;;;;6123453;23;20208;-90
2023/09/19 02:28:22;;;;;;;1.52;1.40;;;16.60;97.70;;;;;;6124924;23;20176;-90
2023/09/19 02:30:50;;;;;;;3.17;1.60;;;16.70;97.30;;;;;;6124356;23;20561;-91
2023/09/19 02:33:17;;;;;;;2.78;1.63;;;16.60;97.30;;;;;;6124593;23;20195;-90
2023/09/19 02:35:46;;;;;;;1.73;1.50;;;16.60;97.90;;;;;;6123995;23;20175;-90
2023/09/19 02:38:12;;;;;;;2.35;1.60;;;16.70;98.10;;;;;;6125532;23;20179;-89
2023/09/19 02:40:40;;;;;;;2.17;1.50;;;16.70;97.50;;;;;;6124771;23;20679;-89
2023/09/19 02:43:09;;;;;;;2.33;1.50;;;16.70;97.30;;;;;;6123881;23;20190;-89
2023/09/19 02:45:36;;;;;;;3.55;1.70;;;16.60;97.60;;;;;;6123877;23;20175;-89
2023/09/19 02:48:03;;;;;;;1.48;1.30;;;16.60;97.60;;;;;;6124084;23;20171;-90
2023/09/19 02:50:30;;;;;;;1.83;1.20;;;16.50;97.80;;;;;;6124025;23;20698;-90
2023/09/19 02:52:59;;;;;;;2.55;1.27;;;16.40;97.90;;;;;;6124218;23;20187;-90
2023/09/19 02:55:26;;;;;;;2.30;1.55;;;16.30;98.20;;;;;;6123332;23;20250;-88
2023/09/19 02:57:55;;;;;;;2.80;1.55;;;16.30;98.10;;;;;;6124193;23;20176;-89
2023/09/19 03:00:23;;;;;;;1.70;1.60;;;16.30;98.10;;;;;;6123003;23;20168;-89
2023/09/19 03:02:51;;;;;;;2.90;1.58;;;16.20;98.50;;;;;;6123030;23;20484;-90
2023/09/19 03:05:18;;;;;;;3.50;1.60;;;16.10;98.50;;;;;;6124020;23;20187;-90
2023/09/19 03:07:46;;;;;;;3.88;1.40;;;16.10;98.80;;;;;;6123544;23;20223;-90
2023/09/19 03:10:15;;;;;;;1.75;1.65;;;16.00;99.00;;;;;;6121255;23;20538;-89
2023/09/19 03:12:42;;;;;;;3.15;1.63;;;16.00;99.50;;;;;;6122119;23;20187;-89
2023/09/19 03:15:10;;;;;;;2.47;1.70;;;16.00;99.50;;;;;;6123446;23;20255;-90
2023/09/19 03:17:37;;;;;;;2.92;1.50;;;15.90;99.30;;;;;;6123423;23;20176;-89
2023/09/19 03:20:07;;;;;;;2.95;1.40;;;15.90;99.20;;;;;;6124088;23;20219;-89
2023/09/19 03:22:34;;;;;;;2.28;1.50;;;15.90;99.30;;;;;;6123455;23;20168;-90
2023/09/19 03:25:01;;;;;;;2.38;1.55;;;15.90;99.50;;;;;;6124161;23;20247;-89
2023/09/19 03:27:29;;;;;;;2.92;1.77;;;15.90;99.00;;;;;;6123815;23;20195;-90
2023/09/19 03:29:56;;;;;;;1.48;1.33;;;15.90;99.10;;;;;;6123786;23;20254;-90
2023/09/19 03:32:23;;;;;;;3.47;1.90;;;16.00;98.60;;;;;;6123323;23;20179;-90
2023/09/19 03:34:50;;;;;;;1.30;1.20;;;16.00;98.60;;;;;;6124920;23;20245;-89
2023/09/19 03:37:17;;;;;;;3.08;1.67;;;16.00;98.40;;;;;;6125282;23;20228;-90
2023/09/19 03:39:44;;;;;;;2.22;1.67;;;16.00;97.80;;;;;;6124293;23;20186;-90
2023/09/19 03:42:11;;;;;;;1.73;1.60;;;16.10;97.70;;;;;;6124814;23;20182;-90
2023/09/19 03:44:39;;;;;;;3.28;1.70;;;16.10;97.20;;;;;;6123941;23;20265;-90
2023/09/19 03:47:06;;;;;;;3.42;1.70;;;16.10;97.20;;;;;;6124113;23;20199;-89
2023/09/19 03:49:33;;;;;;;2.80;1.70;;;16.10;97.20;;;;;;6124293;23;20180;-89
2023/09/19 03:52:00;;;;;;;2.83;1.63;;;16.10;97.20;;;;;;6124684;23;20207;-89
2023/09/19 03:54:27;;;;;;;2.08;1.55;;;16.10;97.20;;;;;;6123897;23;20280;-90
2023/09/19 03:56:54;;;;;;;2.72;1.30;;;16.10;97.20;;;;;;6124807;23;20208;-89
2023/09/19 03:59:21;;;;;;;2.42;1.65;;;16.20;97.20;;;;;;6123923;23;20505;-91
2023/09/19 04:01:50;;;;;;;1.90;1.70;;;16.20;97.20;;;;;;6123136;23;20680;-90
2023/09/19 04:04:18;;;;;;;2.13;1.60;;;16.20;97.20;;;;;;6124028;23;20210;-90
2023/09/19 04:06:45;;;;;;;1.52;1.40;;;16.20;97.20;;;;;;6124106;23;20808;-90
2023/09/19 04:09:12;;;;;;;2.47;1.52;;;16.20;97.20;;;;;;6125493;23;20259;-90
2023/09/19 04:11:39;;;;;;;3.50;2.03;;;16.20;97.20;;;;;;6125073;23;20748;-90
2023/09/19 04:14:06;;;;;;;2.13;1.58;;;16.20;97.00;;;;;;6125257;23;20175;-90
2023/09/19 04:16:33;;;;;;;2.13;1.70;;;16.20;97.20;;;;;;6125811;23;20172;-90
2023/09/19 04:19:02;;;;;;;2.33;1.63;;;16.30;97.20;;;;;;6126667;23;20231;-90
2023/09/19 04:21:29;;;;;;;1.92;1.60;;;16.30;96.80;;;;;;6125884;23;20258;-90
2023/09/19 04:23:56;;;;;;;2.17;1.70;;;16.30;96.50;;;;;;6125949;23;20171;-89
2023/09/19 04:26:23;;;;;;;3.92;1.50;;;16.40;96.50;;;;;;6126042;23;20169;-87
2023/09/19 04:28:51;;;;;;;2.22;1.73;;;16.30;96.60;;;;;;6126683;23;20186;-90
2023/09/19 04:31:19;;;;;;;2.42;1.50;;;16.50;96.20;;;;;;6125639;23;20263;-89
2023/09/19 04:33:46;;;;;;;1.85;1.70;;;16.50;95.30;;;;;;6124763;23;20495;-89
2023/09/19 04:36:15;;;;;;;2.42;1.90;;;16.60;94.70;;;;;;6123227;23;20176;-89
2023/09/19 04:38:42;;;;;;;2.45;1.70;;;16.60;95.10;;;;;;6126447;23;20223;-89
2023/09/19 04:41:09;;;;;;;2.47;1.55;;;16.50;95.30;;;;;;6125964;23;20207;-88
2023/09/19 04:43:36;;;;;;;4.78;1.73;;;16.50;95.40;;;;;;6125605;23;20834;-90
2023/09/19 04:46:03;;;;;;;2.13;1.63;;;16.60;94.80;;;;;;6128511;23;20172;-92
2023/09/19 04:48:30;;;;;;;3.08;1.60;;;16.60;94.80;;;;;;6133771;23;20206;-92
2023/09/19 04:50:57;;;;;;;2.65;1.73;;;16.60;94.50;;;;;;6134713;23;20659;-92
2023/09/19 04:53:25;;;;;;;3.47;1.80;;;16.60;94.50;;;;;;6125458;23;20176;-89
2023/09/19 04:55:55;;;;;;;3.83;2.05;;;16.60;94.70;;;;;;6124532;23;20182;-89
2023/09/19 04:58:22;;;;;;;2.95;1.55;;;16.50;94.60;;;;;;6125347;23;20195;-89
2023/09/19 05:00:50;;;;;;;2.00;1.40;;;16.50;94.40;;;;;;6124537;23;20184;-89
2023/09/19 05:03:20;;;;;;;1.77;1.48;;;16.60;94.10;;;;;;6123203;23;20211;-89
2023/09/19 05:05:46;;;;;;;2.92;1.58;;;16.60;94.20;;;;;;6124904;23;20186;-89
2023/09/19 05:08:14;;;;;;;3.80;1.50;;;16.60;94.00;;;;;;6124755;23;20223;-89
2023/09/19 05:10:43;;;;;;;2.88;1.40;;;16.60;93.70;;;;;;6124575;23;20255;-90
2023/09/19 05:13:10;;;;;;;2.80;1.40;;;16.60;93.50;;;;;;6124953;23;20188;-89
2023/09/19 05:15:37;;;;;;;2.45;1.60;;;16.70;93.70;;;;;;6125960;23;20177;-89
2023/09/19 05:18:06;;;;;;;1.77;1.50;;;16.70;93.50;;;;;;6125534;23;20176;-91
2023/09/19 05:20:35;;;;;;;3.92;1.83;;;16.70;93.50;;;;;;6125937;23;20211;-90
2023/09/19 05:23:02;;;;;;;2.30;1.65;;;16.80;92.90;;;;;;6124832;23;20176;-90
2023/09/19 05:25:30;;;;;;;2.85;1.67;;;16.90;92.80;;;;;;6126245;23;20176;-90
2023/09/19 05:28:00;;;;;;;3.85;1.52;;;16.90;92.70;;;;;;6126299;23;20194;-90
2023/09/19 05:30:29;;;;;;;2.08;1.50;;;16.90;92.40;;;;;;6124797;23;20187;-89
2023/09/19 05:32:56;;;;;;;1.90;1.50;;;16.90;92.50;;;;;;6124551;23;20271;-89
2023/09/19 05:35:23;;;;;;;2.50;1.50;;;16.90;92.60;;;;;;6124577;23;20480;-87
2023/09/19 05:37:51;;;;;;;1.60;1.42;;;16.90;92.40;;;;;;6125299;23;20180;-89
2023/09/19 05:40:18;;;;;;;4.53;1.55;;;16.90;92.30;;;;;;6125106;23;20926;-88
2023/09/19 05:42:45;;;;;;;2.25;1.70;;;16.90;92.30;;;;;;6123353;23;20168;-88
2023/09/19 05:45:18;;;;;;;2.22;1.48;;;16.90;91.90;;;;;;6122827;23;20175;-88
2023/09/19 05:47:46;;;;;;;4.30;1.55;;;17.00;91.90;;;;;;6122679;23;20183;-89
2023/09/19 05:50:14;;;;;;;1.70;1.52;;;17.00;91.90;;;;;;6123575;23;20275;-88
2023/09/19 05:52:43;;;;;;;1.92;1.50;;;16.90;91.90;;;;;;6124239;23;20187;-88
2023/09/19 05:55:11;;;;;;;1.45;1.35;;;16.90;91.90;;;;;;6124490;23;20179;-88
2023/09/19 05:57:39;;;;;;;4.93;1.58;;;16.80;91.90;;;;;;6125047;23;20278;-88
2023/09/19 06:00:08;;;;;;;1.90;1.40;;;16.70;92.30;;;;;;6125124;23;20172;-89
2023/09/19 06:02:37;;;;;;;2.30;1.60;;;16.80;92.30;;;;;;6124948;23;20183;-88
2023/09/19 06:05:06;;;;;;;2.47;1.40;;;16.70;92.50;;;;;;6124579;23;20176;-88
2023/09/19 06:07:36;;;;;;;1.50;1.30;;;16.80;92.50;;;;;;6124555;23;20238;-88
2023/09/19 06:10:05;;;;;;;2.85;1.45;;;16.90;92.10;;;;;;6124748;23;20212;-89
2023/09/19 06:12:32;;;;;;;1.42;1.33;;;17.10;92.00;;;;;;6125163;23;20176;-88
2023/09/19 06:15:00;;;;;;;2.75;1.40;;;17.30;92.00;;;;;;6125190;23;20262;-89
2023/09/19 06:17:27;;;;;;;1.55;1.35;;;17.40;92.00;;;;;;6125123;23;20176;-88
2023/09/19 06:19:55;;;;;;;1.90;1.48;;;17.50;91.50;;;;;;6125725;23;20505;-89
2023/09/19 06:22:23;;;;;;;5.85;1.63;;;17.60;91.20;;;;;;6126554;23;20646;-91
2023/09/19 06:24:50;;;;;;;2.35;1.50;;;17.60;91.10;;;;;;6126849;23;20183;-90
2023/09/19 06:27:17;;;;;;;2.25;1.40;;;17.80;90.20;;;;;;6127460;23;20662;-90
2023/09/19 06:29:44;;;;;;;3.17;1.77;;;17.90;88.90;;;;;;6125739;23;20260;-92
2023/09/19 06:32:11;;;;;;;2.05;1.80;;;17.90;89.10;;;;;;6125996;23;20263;-88
2023/09/19 06:34:38;;;;;;;1.58;1.30;;;18.00;88.00;;;;;;6122823;23;20188;-88
2023/09/19 06:37:06;;;;;;;1.80;1.30;;;18.20;84.90;;;;;;6124510;23;20242;-86
2023/09/19 06:39:33;;;;;;;3.47;1.33;;;18.30;85.10;;;;;;6124665;23;20183;-88
2023/09/19 06:42:01;;;;;;;1.88;1.50;;;18.30;86.20;;;;;;6124097;23;20182;-89
2023/09/19 06:44:29;;;;;;;2.38;1.50;;;18.20;85.60;;;;;;6124260;23;20215;-89
2023/09/19 06:46:56;;;;;;;1.88;1.60;;;18.10;86.70;;;;;;6123704;23;20251;-88
2023/09/19 06:49:23;;;;;;;2.90;1.48;;;18.10;88.20;;;;;;6123677;23;20168;-89
2023/09/19 06:51:49;;;;;;;3.97;1.52;;;18.00;87.10;;;;;;6127379;23;20274;-91
2023/09/19 06:54:19;;;;;;;4.15;1.77;;;18.10;87.00;;;;;;6130812;23;20513;-90
2023/09/19 06:56:47;;;;;;;3.63;1.33;;;18.00;88.10;;;;;;6133615;23;20210;-92
2023/09/19 06:59:16;;;;;;;1.50;1.40;;;18.00;86.80;;;;;;6162023;23;20171;-92
2023/09/19 07:01:44;;;;;;;6.45;1.63;;;17.90;86.70;;;;;;6160074;23;20164;-94
2023/09/19 07:04:12;;;;;;;4.70;1.50;;;17.80;87.70;;;;;;6158891;23;20686;-95
2023/09/19 07:06:40;;;;;;;1.70;1.30;;;17.80;88.90;;;;;;6158887;23;20199;-92
2023/09/19 07:09:08;;;;;;;1.88;1.40;;;18.00;88.50;;;;;;6160832;23;20199;-94
2023/09/19 07:11:36;;;;;;;3.30;2.08;;;18.20;87.10;;;;;;6159088;23;20190;-92
2023/09/19 07:14:05;;;;;;;2.22;1.60;;;18.50;85.20;;;;;;6155840;23;20266;-91
2023/09/19 07:16:32;;;;;;;1.95;1.50;;;18.60;82.60;;;;;;6161088;23;20186;-94
2023/09/19 07:18:59;;;;;;;1.83;1.45;;;18.60;82.60;;;;;;6138112;23;20230;-93
2023/09/19 07:21:26;;;;;;;1.92;1.40;;;18.70;81.40;;;;;;6158806;23;20238;-93
2023/09/19 07:23:52;;;;;;;2.60;1.52;;;18.70;81.80;;;;;;6153844;23;20618;-93
2023/09/19 07:26:19;;;;;;;3.80;1.55;;;18.50;83.10;;;;;;6133792;23;20180;-90
2023/09/19 07:28:47;;;;;;;2.25;1.58;;;18.50;84.10;;;;;;6127290;23;20195;-91
2023/09/19 07:31:15;;;;;;;3.55;1.50;;;18.40;84.20;;;;;;6152815;23;20175;-91
2023/09/19 07:33:42;;;;;;;2.50;1.50;;;18.40;84.00;;;;;;6153437;23;20213;-91
2023/09/19 07:36:13;;;;;;;2.35;1.50;;;18.40;84.60;;;;;;6152772;23;20566;-92
2023/09/19 07:38:40;;;;;;;1.73;1.38;;;18.40;84.50;;;;;;6152288;23;20201;-90
2023/09/19 07:41:09;;;;;;;2.30;1.50;;;18.60;83.60;;;;;;6155445;23;20249;-91
2023/09/19 07:43:38;;;;;;;2.03;1.42;;;18.70;83.50;;;;;;6156726;23;20427;-90
2023/09/19 07:46:08;;;;;;;6.13;1.60;;;18.80;81.90;;;;;;6156440;23;20175;-89
2023/09/19 07:48:37;;;;;;;1.80;1.40;;;18.90;83.20;;;;;;6156618;23;20198;-93
2023/09/19 07:51:04;;;;;;;3.65;1.60;;;19.00;82.20;;;;;;6106954;23;20234;-93
2023/09/19 07:53:34;;;;;;;1.50;1.30;;;19.10;80.50;;;;;;6164931;23;20175;-93
2023/09/19 07:56:05;;;;;;;1.95;1.60;;;19.30;78.60;;;;;;6166234;23;20175;-93
2023/09/19 07:58:33;;;;;;;2.63;2.22;;;19.30;80.30;;;;;;6162433;23;20567;-93
2023/09/19 08:01:04;;;;;;;2.65;1.70;;;19.20;78.70;;;;;;6133750;23;20238;-94
2023/09/19 08:03:32;;;;;;;2.20;1.60;;;19.30;77.90;;;;;;6156382;23;20187;-90
2023/09/19 08:05:59;;;;;;;2.63;1.40;;;19.30;79.30;;;;;;6155679;23;20181;-91
2023/09/19 08:08:26;;;;;;;1.83;1.63;;;19.30;78.90;;;;;;6129662;23;20198;-91
2023/09/19 08:10:56;;;;;;;1.77;1.60;;;19.40;79.40;;;;;;6166808;23;20186;-93
2023/09/19 08:13:23;;;;;;;2.35;2.15;;;19.70;74.90;;;;;;6138811;23;20693;-91
2023/09/19 08:15:50;;;;;;;3.88;1.42;;;19.90;75.10;;;;;;6117164;23;20182;-94
2023/09/19 08:18:18;;;;;;;3.13;1.52;;;20.00;70.40;;;;;;6160092;23;20207;-92
2023/09/19 08:20:51;;;;;;;3.33;1.50;;;20.10;67.80;;;;;;6132564;23;20223;-92
2023/09/19 08:23:19;;;;;;;3.95;1.70;;;20.20;69.50;;;;;;6159246;23;20166;-92
2023/09/19 08:25:46;;;;;;;2.78;1.40;;;20.30;71.50;;;;;;6163488;23;20234;-91
2023/09/19 08:28:17;;;;;;;2.05;1.50;;;20.30;68.00;;;;;;6165690;23;20630;-93
2023/09/19 08:30:44;;;;;;;1.75;1.42;;;20.40;69.80;;;;;;6157020;23;20168;-91
2023/09/19 08:33:11;;;;;;;1.95;1.30;;;20.40;65.20;;;;;;6161983;23;20179;-91
2023/09/19 08:35:39;;;;;;;1.70;1.38;;;20.40;66.90;;;;;;6158734;23;20179;-93
2023/09/19 08:38:07;;;;;;;1.92;1.25;;;20.20;67.60;;;;;;6156602;23;20594;-91
2023/09/19 08:40:39;;;;;;;2.33;1.70;;;20.00;69.00;;;;;;6160567;23;20645;-93
2023/09/19 08:43:06;;;;;;;1.83;1.30;;;20.10;63.80;;;;;;6164127;23;20175;-92
2023/09/19 08:45:34;;;;;;;2.55;1.38;;;20.00;66.00;;;;;;6139769;23;20176;-93
2023/09/19 08:48:17;;;;;;;4.72;1.38;;;20.00;66.30;;;;;;6164691;23;20191;-91
2023/09/19 08:50:50;;;;;;;4.95;1.30;;;20.40;60.60;;;;;;6156027;23;20254;-91
2023/09/19 08:53:27;;;;;;;3.15;1.13;;;20.80;56.60;;;;;;6155334;23;20172;-91
2023/09/19 08:55:56;;;;;;;1.80;1.42;;;20.90;55.40;;;;;;6128086;23;20186;-89
2023/09/19 08:58:27;;;;;;;1.83;1.40;;;21.40;50.60;;;;;;6156787;23;20254;-90
2023/09/19 09:00:55;;;;;;;3.17;1.35;;;22.10;45.80;;;;;;6137528;23;20163;-92
2023/09/19 09:03:24;;;;;;;1.40;1.30;;;23.20;40.10;;;;;;6132800;23;20179;-88
2023/09/19 09:05:52;;;;;;;1.40;1.30;;;23.40;36.60;;;;;;6159240;23;20551;-89
2023/09/19 09:08:21;;;;;;;2.15;1.38;;;23.00;37.80;;;;;;6160981;23;20209;-91
2023/09/19 09:10:48;;;;;;;3.97;1.52;;;22.80;34.40;;;;;;6167543;23;20175;-92
2023/09/19 09:13:15;;;;;;;1.25;1.05;;;22.20;38.90;;;;;;6136436;23;20178;-92
2023/09/19 09:15:44;;;;;;;2.78;1.40;;;21.80;40.90;;;;;;6162444;23;20172;-91
2023/09/19 09:18:11;;;;;;;1.30;1.20;;;21.70;41.70;;;;;;6166235;23;20180;-91
2023/09/19 09:20:38;;;;;;;2.88;1.40;;;21.20;44.30;;;;;;6168008;23;20187;-92
2023/09/19 09:23:06;;;;;;;1.95;1.30;;;21.10;44.40;;;;;;6149249;23;20242;-91
2023/09/19 09:25:56;;;;;;;1.50;1.25;;;20.70;47.70;;;;;;6142578;23;20229;-92
2023/09/19 09:28:24;;;;;;;3.22;1.40;;;20.70;46.10;;;;;;6156438;23;20187;-89
2023/09/19 09:30:51;;;;;;;2.35;1.30;;;20.60;48.40;;;;;;6104754;23;20247;-88
2023/09/19 09:33:19;;;;;;;1.52;1.30;;;20.60;47.80;;;;;;6129111;23;20183;-89
2023/09/19 09:35:56;;;;;;;3.58;2.03;;;20.80;44.60;;;;;;6128363;23;20203;-89
2023/09/19 09:38:27;;;;;;;2.25;1.88;;;21.70;40.30;;;;;;6162684;23;20171;-92
2023/09/19 09:41:01;;;;;;;2.58;1.70;;;22.70;34.30;;;;;;6161072;23;20173;-92
2023/09/19 09:43:29;;;;;;;2.78;1.80;;;23.90;32.70;;;;;;6156150;23;20194;-89
2023/09/19 09:51:47;;;;;;;2.15;1.60;;;25.90;17.60;;;;;;6154255;23;20197;-89
2023/09/19 09:54:15;;;;;;;1.70;1.60;;;26.00;17.80;;;;;;6153390;23;20166;-90
2023/09/19 09:56:58;;;;;;;1.70;1.60;;;25.90;18.20;;;;;;6154663;23;20186;-91
2023/09/19 09:59:50;;;;;;;1.60;1.50;;;25.30;19.70;;;;;;6153645;23;20493;-89
2023/09/19 10:02:23;;;;;;;3.33;1.70;;;24.10;21.80;;;;;;6154593;23;20159;-88
2023/09/19 10:05:09;;;;;;;3.15;1.42;;;23.40;24.70;;;;;;6154277;23;20255;-89
2023/09/19 10:07:40;;;;;;;42.10;38.08;;;24.10;23.70;;;;;;6132359;23;20159;-89
2023/09/19 10:10:13;;;;;;;6.88;6.28;;;25.20;22.20;;;;;;6153868;23;20183;-89
2023/09/19 10:12:45;;;;;;;85.38;77.47;;;25.60;19.50;;;;;;6154594;23;20194;-90
2023/09/19 10:15:16;;;;;;;2.00;1.90;;;25.90;18.00;;;;;;6153500;23;20190;-89
2023/09/19 10:17:45;;;;;;;1.67;1.52;;;26.10;19.10;;;;;;6130524;23;20182;-91
2023/09/19 10:20:33;;;;;;;1.83;1.52;;;26.40;18.00;;;;;;6155577;23;20234;-89
2023/09/19 10:23:10;;;;;;;3.30;1.80;;;26.70;16.80;;;;;;6107662;23;20249;-88
2023/09/19 10:25:38;;;;;;;2.40;1.50;;;26.20;18.40;;;;;;6158506;23;20198;-91
2023/09/19 10:28:10;;;;;;;2.05;1.88;;;26.50;16.70;;;;;;6169770;23;20310;-92
2023/09/19 10:30:43;;;;;;;2.28;1.73;;;26.50;17.30;;;;;;6170443;23;20199;-92
2023/09/19 10:33:10;;;;;;;3.80;1.90;;;26.30;17.90;;;;;;6162608;23;20163;-92
2023/09/19 10:35:40;;;;;;;1.80;1.70;;;26.40;18.30;;;;;;6136652;23;20175;-91
2023/09/19 10:38:08;;;;;;;1.73;1.60;;;26.50;17.90;;;;;;6140878;23;20175;-88
2023/09/19 10:40:40;;;;;;;2.20;1.70;;;27.00;17.10;;;;;;6155460;23;20222;-87
2023/09/19 10:43:14;;;;;;;4.10;1.70;;;26.80;17.20;;;;;;6149922;23;20185;-89
2023/09/19 10:45:44;;;;;;;4.60;1.70;;;26.60;17.40;;;;;;6153324;23;20220;-88
2023/09/19 10:48:12;;;;;;;2.65;1.70;;;26.70;16.00;;;;;;6152490;23;20644;-87
2023/09/19 10:50:48;;;;;;;2.85;1.85;;;26.90;16.20;;;;;;6153680;23;20732;-89
2023/09/19 10:53:17;;;;;;;2.45;1.60;;;26.50;16.80;;;;;;6155148;23;20253;-90
2023/09/19 10:55:53;;;;;;;5.15;3.00;;;26.50;17.20;;;;;;6151205;23;20175;-88
2023/09/19 10:58:29;;;;;;;28.98;22.48;;;26.00;18.60;;;;;;6158078;23;20183;-90
2023/09/19 11:01:02;;;;;;;13.05;11.88;;;25.90;18.20;;;;;;6153734;23;20170;-92
2023/09/19 11:03:31;;;;;;;4.38;3.38;;;25.80;22.50;;;;;;6162743;23;20163;-93
2023/09/19 11:06:13;;;;;;;2.28;2.08;;;25.80;19.00;;;;;;6157988;23;20202;-92
2023/09/19 11:11:50;;;;;;;2.47;2.08;;;25.00;21.10;;;;;;6157698;23;20708;-87
2023/09/19 11:14:40;;;;;;;3.60;1.80;;;24.80;23.80;;;;;;6152099;23;20167;-88
2023/09/19 11:17:34;;;;;;;4.60;1.83;;;24.50;23.00;;;;;;6165651;23;20177;-91
2023/09/19 11:20:39;;;;;;;3.50;1.80;;;23.70;23.30;;;;;;6142992;23;20184;-91
2023/09/19 11:23:30;;;;;;;1.88;1.67;;;23.10;24.80;;;;;;6159764;23;20242;-89
2023/09/19 11:25:57;;;;;;;1.83;1.50;;;22.70;27.20;;;;;;6154591;23;20495;-89
2023/09/19 11:28:39;;;;;;;12.13;8.10;;;22.50;27.20;;;;;;6154371;23;20183;-87
2023/09/19 11:31:55;;;;;;;4.53;4.03;;;22.70;28.10;;;;;;6157664;23;20462;-88
2023/09/19 11:34:51;;;;;;;3.35;1.50;;;23.00;26.90;;;;;;6163561;23;20222;-89
2023/09/19 11:38:11;;;;;;;1.88;1.38;;;23.40;24.30;;;;;;6167215;23;20179;-91
2023/09/19 11:40:39;;;;;;;1.60;1.50;;;23.40;21.60;;;;;;6160618;23;20171;-91
2023/09/19 11:43:40;;;;;;;1.85;1.33;;;23.60;23.20;;;;;;6170943;23;20179;-90
2023/09/19 11:46:07;;;;;;;1.70;1.20;;;23.40;21.30;;;;;;6168055;23;20179;-90
2023/09/19 11:48:37;;;;;;;1.85;1.33;;;23.00;20.10;;;;;;6109506;23;20172;-89
2023/09/19 11:51:15;;;;;;;1.40;1.30;;;22.90;22.70;;;;;;6157673;23;20195;-87
2023/09/19 11:53:47;;;;;;;1.38;1.25;;;22.90;20.70;;;;;;6154250;23;20231;-88
2023/09/19 11:56:17;;;;;;;3.28;1.30;;;22.60;20.90;;;;;;6153722;23;20179;-88
2023/09/19 11:58:44;;;;;;;1.23;1.13;;;22.30;20.00;;;;;;6128109;23;20186;-87
2023/09/19 12:01:14;;;;;;;1.65;1.42;;;22.20;22.10;;;;;;6127475;23;20172;-88
2023/09/19 12:03:47;;;;;;;1.50;1.40;;;22.20;22.10;;;;;;6153262;23;20674;-90
2023/09/19 12:06:17;;;;;;;2.55;1.38;;;22.50;22.40;;;;;;6153840;23;20171;-91
2023/09/19 12:08:46;;;;;;;2.13;1.40;;;22.90;22.70;;;;;;6154274;23;20229;-89
2023/09/19 12:11:16;;;;;;;1.98;1.40;;;23.30;20.60;;;;;;6152855;23;20195;-92
2023/09/19 12:13:45;;;;;;;9.40;8.50;;;23.60;20.60;;;;;;6151643;23;20497;-90
2023/09/19 12:16:16;;;;;;;23.00;18.45;;;23.70;22.20;;;;;;6127708;23;20281;-90
2023/09/19 12:18:46;;;;;;;4.53;3.25;;;23.80;19.40;;;;;;6153449;23;20215;-89
2023/09/19 12:21:37;;;;;;;1.92;1.65;;;23.80;19.90;;;;;;6153295;23;20477;-91
2023/09/19 12:24:13;;;;;;;1.55;1.45;;;23.60;20.10;;;;;;6153434;23;20214;-91
2023/09/19 12:26:47;;;;;;;1.40;1.30;;;23.60;19.40;;;;;;6152636;23;20175;-89
2023/09/19 12:29:17;;;;;;;1.38;1.27;;;23.60;19.30;;;;;;6154036;23;20515;-90
2023/09/19 12:31:51;;;;;;;1.95;1.63;;;23.40;19.90;;;;;;6125561;23;20179;-91
2023/09/19 12:34:21;;;;;;;1.98;1.35;;;23.40;22.10;;;;;;6157569;23;20187;-92
2023/09/19 12:36:49;;;;;;;1.40;1.30;;;23.40;21.50;;;;;;6162408;23;20178;-92
2023/09/19 12:39:26;;;;;;;2.67;1.38;;;23.50;20.00;;;;;;6129700;23;20494;-92
2023/09/19 12:41:54;;;;;;;1.42;1.27;;;23.40;19.00;;;;;;6101319;23;20206;-90
2023/09/19 12:44:24;;;;;;;1.40;1.30;;;23.30;20.00;;;;;;6157867;23;20187;-88
2023/09/19 12:46:54;;;;;;;3.20;1.55;;;23.20;19.90;;;;;;6132045;23;20175;-92
2023/09/19 12:49:22;;;;;;;1.50;1.40;;;23.20;20.70;;;;;;6154892;23;20242;-90
2023/09/19 12:51:58;;;;;;;3.13;1.25;;;23.40;21.60;;;;;;6127830;23;20199;-90
2023/09/19 12:54:26;;;;;;;2.75;2.08;;;23.40;21.60;;;;;;6124846;23;20192;-89
2023/09/19 12:56:54;;;;;;;2.78;1.98;;;23.60;20.20;;;;;;6155627;23;20175;-91
2023/09/19 12:59:32;;;;;;;2.75;1.73;;;23.60;20.30;;;;;;6166198;23;20182;-92
2023/09/19 13:02:05;;;;;;;1.67;1.38;;;23.40;21.20;;;;;;6140325;23;20226;-92
2023/09/19 13:04:34;;;;;;;1.58;1.48;;;23.40;22.60;;;;;;6169128;23;20219;-94
2023/09/19 13:07:02;;;;;;;3.70;1.30;;;23.60;22.60;;;;;;6159587;23;20745;-91
2023/09/19 13:09:34;;;;;;;1.90;1.40;;;23.70;21.40;;;;;;6137056;23;20264;-92
2023/09/19 13:12:02;;;;;;;2.17;1.70;;;23.70;21.10;;;;;;6162695;23;20175;-92